Time;durP1;ratioP1;P1;durP2;ratioP2;P2;SDS_P1;SDS_P2;PMS_P1;PMS_P2;Temp;Humidity;BMP_temperature;BMP_pressure;BME280_temperature;BME280_humidity;BME280_pressure;Samples;Min_cycle;Max_cycle;Signal;HPM_P1;HPM_P2
2023/08/14 00:02:22;;;;;;;6.35;3.22;;;;;;;17.06;100.00;101007.00;6097474;28;20029;-66
2023/08/14 00:05:17;;;;;;;5.10;2.85;;;;;;;16.81;100.00;101002.00;6098783;28;20383;-66
2023/08/14 00:08:12;;;;;;;8.80;3.20;;;;;;;16.58;100.00;100994.78;6108629;28;20035;-66
2023/08/14 00:11:08;;;;;;;8.37;2.83;;;;;;;16.80;100.00;101009.19;6096170;28;20032;-66
2023/08/14 00:14:03;;;;;;;9.60;2.90;;;;;;;17.24;100.00;100995.91;6096509;28;20075;-66
2023/08/14 00:16:58;;;;;;;6.55;2.65;;;;;;;17.25;100.00;100997.59;6097361;28;20061;-66
2023/08/14 00:19:54;;;;;;;5.27;3.00;;;;;;;17.18;100.00;101000.16;6098177;28;20057;-66
2023/08/14 00:22:49;;;;;;;5.77;3.27;;;;;;;16.99;100.00;100999.81;6097004;28;20116;-66
2023/08/14 00:25:44;;;;;;;7.53;3.30;;;;;;;16.94;100.00;100999.53;6096487;28;20267;-66
2023/08/14 00:28:40;;;;;;;7.80;2.53;;;;;;;17.02;100.00;101008.34;6104472;28;20033;-66
2023/08/14 00:31:35;;;;;;;7.68;3.10;;;;;;;17.04;100.00;100995.59;6097034;28;20033;-66
2023/08/14 00:34:31;;;;;;;9.73;3.10;;;;;;;17.08;100.00;101009.47;6096476;28;20041;-66
2023/08/14 00:37:43;;;;;;;8.70;3.60;;;;;;;17.13;100.00;101007.09;6099855;28;20025;-66
2023/08/14 00:40:39;;;;;;;10.82;2.80;;;;;;;17.15;100.00;100992.47;6101545;28;20407;-65
2023/08/14 00:43:34;;;;;;;7.35;3.50;;;;;;;17.27;100.00;100998.25;6100585;28;20029;-66
2023/08/14 00:46:30;;;;;;;9.00;3.03;;;;;;;17.36;100.00;100999.84;6101493;28;20029;-66
2023/08/14 00:49:25;;;;;;;11.45;4.63;;;;;;;17.39;100.00;100995.97;6116654;28;20448;-66
2023/08/14 00:52:21;;;;;;;5.97;3.10;;;;;;;17.32;100.00;101008.41;6096106;28;20037;-66
2023/08/14 00:55:22;;;;;;;9.02;2.90;;;;;;;17.02;100.00;101015.53;6100598;28;20025;-65
2023/08/14 00:58:17;;;;;;;8.27;3.47;;;;;;;17.02;100.00;101007.50;6100943;28;20059;-66
2023/08/14 01:01:13;;;;;;;5.32;3.10;;;;;;;16.72;100.00;101005.72;6099798;28;20036;-66
2023/08/14 01:04:09;;;;;;;9.57;3.05;;;;;;;16.62;100.00;101009.50;6100152;28;20116;-66
2023/08/14 01:07:04;;;;;;;7.93;2.97;;;;;;;16.51;100.00;101004.53;6099846;28;20029;-66
2023/08/14 01:10:01;;;;;;;6.23;2.97;;;;;;;16.60;100.00;101021.41;6094865;28;20026;-66
2023/08/14 01:13:15;;;;;;;8.95;3.17;;;;;;;16.66;100.00;100985.84;6115787;28;20028;-66
2023/08/14 01:16:15;;;;;;;8.13;3.05;;;;;;;16.60;100.00;101019.53;6100802;28;20508;-66
2023/08/14 01:19:19;;;;;;;6.97;2.47;;;;;;;16.62;100.00;100993.44;6099121;28;20039;-65
2023/08/14 01:22:24;;;;;;;4.47;2.70;;;;;;;16.79;100.00;101006.72;6099449;28;20048;-66
2023/08/14 01:25:19;;;;;;;9.75;3.22;;;;;;;16.59;100.00;101009.84;6103030;28;20036;-66
2023/08/14 01:28:15;;;;;;;7.55;3.35;;;;;;;16.58;100.00;101008.19;6100476;28;20017;-66
2023/08/14 01:31:10;;;;;;;7.45;3.28;;;;;;;16.74;100.00;100996.50;6104523;28;20472;-65
2023/08/14 01:34:05;;;;;;;8.43;3.50;;;;;;;16.25;100.00;100995.97;6108109;28;20025;-66
2023/08/14 01:37:37;;;;;;;6.78;2.95;;;;;;;16.72;100.00;100984.31;6101206;28;20252;-66
2023/08/14 01:40:39;;;;;;;6.03;3.33;;;;;;;16.62;100.00;100990.75;6103932;28;20365;-66
2023/08/14 01:43:40;;;;;;;11.73;3.45;;;;;;;16.56;100.00;101002.19;6098552;28;20465;-66
2023/08/14 01:46:36;;;;;;;7.57;2.78;;;;;;;16.60;100.00;100987.41;6115603;28;20035;-66
2023/08/14 01:49:33;;;;;;;12.98;3.10;;;;;;;16.56;100.00;100983.44;6093982;28;20037;-66
2023/08/14 01:52:28;;;;;;;5.63;3.03;;;;;;;16.72;100.00;100978.94;6099488;28;20052;-66
2023/08/14 01:55:24;;;;;;;7.03;2.67;;;;;;;16.78;100.00;100986.28;6099142;28;20029;-66
2023/08/14 01:58:20;;;;;;;7.00;3.25;;;;;;;16.69;100.00;100984.69;6100632;28;20311;-66
2023/08/14 02:01:15;;;;;;;12.57;3.33;;;;;;;16.69;100.00;100974.78;6099765;28;20035;-66
2023/08/14 02:04:10;;;;;;;7.33;2.77;;;;;;;16.79;100.00;100990.63;6098969;28;20423;-65
2023/08/14 02:07:06;;;;;;;6.90;3.10;;;;;;;16.28;100.00;100982.22;6099380;28;20364;-66
2023/08/14 02:10:02;;;;;;;7.30;3.00;;;;;;;16.04;100.00;100950.25;6099406;28;20271;-66
2023/08/14 02:12:57;;;;;;;8.10;3.05;;;;;;;16.04;100.00;100966.31;6100323;28;20421;-66
2023/08/14 02:15:52;;;;;;;9.57;3.23;;;;;;;16.07;100.00;100985.53;6105395;28;20035;-66
2023/08/14 02:18:48;;;;;;;13.17;4.20;;;;;;;15.78;100.00;100968.44;6099307;28;20029;-66
2023/08/14 02:21:43;;;;;;;10.97;2.93;;;;;;;15.74;100.00;100961.75;6099028;28;20017;-66
2023/08/14 02:24:39;;;;;;;11.47;3.40;;;;;;;15.81;100.00;100970.78;6098535;28;20475;-66
2023/08/14 02:27:34;;;;;;;9.23;3.40;;;;;;;15.79;100.00;100973.63;6098949;28;20029;-66
2023/08/14 02:30:29;;;;;;;6.67;3.30;;;;;;;16.01;100.00;100974.69;6106574;28;20033;-66
2023/08/14 02:33:25;;;;;;;7.90;3.00;;;;;;;16.03;100.00;100962.78;6098082;28;20104;-66
2023/08/14 02:36:20;;;;;;;12.57;3.33;;;;;;;15.93;100.00;100969.38;6098768;28;20354;-66
2023/08/14 02:39:15;;;;;;;9.77;3.00;;;;;;;15.89;100.00;100968.06;6098624;28;20282;-66
2023/08/14 02:42:11;;;;;;;6.53;3.50;;;;;;;15.65;100.00;100962.81;6098758;28;20039;-65
2023/08/14 02:45:07;;;;;;;7.93;3.40;;;;;;;15.63;100.00;100960.31;6099266;28;20029;-66
2023/08/14 02:48:02;;;;;;;8.07;3.42;;;;;;;15.52;100.00;100959.88;6094251;28;20028;-66
2023/08/14 02:50:57;;;;;;;8.77;3.50;;;;;;;15.51;100.00;100966.22;6098219;28;20112;-66
2023/08/14 02:53:53;;;;;;;7.40;2.97;;;;;;;15.40;100.00;100970.88;6097712;28;20032;-65
2023/08/14 02:56:48;;;;;;;8.97;3.60;;;;;;;15.26;100.00;100963.56;6098122;28;20033;-65
2023/08/14 02:59:43;;;;;;;11.52;3.33;;;;;;;15.23;100.00;100963.06;6098413;28;20036;-65
2023/08/14 03:02:39;;;;;;;7.47;3.90;;;;;;;15.31;100.00;100987.09;6097320;28;20029;-65
2023/08/14 03:05:34;;;;;;;7.60;3.40;;;;;;;15.25;100.00;100971.72;6097330;28;20055;-65
2023/08/14 03:08:29;;;;;;;7.20;3.10;;;;;;;15.36;100.00;100955.34;6098197;28;20141;-66
2023/08/14 03:11:25;;;;;;;7.23;2.77;;;;;;;15.28;100.00;100940.16;6097972;28;20025;-66
2023/08/14 03:14:20;;;;;;;6.13;3.08;;;;;;;15.38;100.00;100962.19;6098525;28;20037;-65
2023/08/14 03:17:16;;;;;;;5.20;3.10;;;;;;;15.24;100.00;100943.38;6097998;28;20037;-65
2023/08/14 03:20:12;;;;;;;7.75;3.00;;;;;;;15.38;100.00;100962.19;6097882;28;20447;-66
2023/08/14 03:23:07;;;;;;;7.13;3.20;;;;;;;15.39;100.00;100969.22;6097848;28;20116;-65
2023/08/14 03:26:03;;;;;;;7.43;3.23;;;;;;;15.39;100.00;100955.84;6092478;28;20028;-66
2023/08/14 03:28:58;;;;;;;8.57;3.40;;;;;;;15.46;100.00;100956.84;6098740;28;20111;-66
2023/08/14 03:31:54;;;;;;;9.83;3.27;;;;;;;15.41;100.00;100950.31;6097653;28;20035;-66
2023/08/14 03:34:49;;;;;;;5.90;3.57;;;;;;;15.38;100.00;100937.31;6096922;28;20032;-66
2023/08/14 03:37:44;;;;;;;7.68;3.10;;;;;;;15.35;100.00;100937.66;6097771;28;20460;-65
2023/08/14 03:40:40;;;;;;;9.13;3.50;;;;;;;15.51;100.00;100937.63;6097537;28;20033;-65
2023/08/14 03:43:35;;;;;;;6.20;3.20;;;;;;;15.38;100.00;100954.16;6097074;28;20083;-66
2023/08/14 03:46:30;;;;;;;7.93;3.20;;;;;;;15.25;100.00;100942.34;6109447;28;20283;-65
2023/08/14 03:49:26;;;;;;;9.10;3.87;;;;;;;15.25;100.00;100939.66;6097600;28;20274;-65
2023/08/14 03:52:21;;;;;;;8.55;3.67;;;;;;;15.24;100.00;100943.38;6097514;28;20025;-65
2023/08/14 03:55:16;;;;;;;7.53;3.33;;;;;;;15.24;100.00;100954.06;6096782;28;20079;-65
2023/08/14 03:58:12;;;;;;;7.70;3.40;;;;;;;15.16;100.00;100949.56;6097605;28;20028;-65
2023/08/14 04:01:07;;;;;;;9.63;3.83;;;;;;;15.05;100.00;100935.72;6091735;28;20029;-65
2023/08/14 04:04:03;;;;;;;10.80;3.80;;;;;;;15.10;100.00;100952.91;6081492;28;20024;-65
2023/08/14 04:06:58;;;;;;;6.88;3.70;;;;;;;15.06;100.00;100940.88;6099562;28;20267;-65
2023/08/14 04:09:54;;;;;;;7.27;3.23;;;;;;;15.00;100.00;100930.88;6099664;28;20025;-65
2023/08/14 04:12:50;;;;;;;10.00;3.60;;;;;;;15.06;100.00;100935.53;6098375;28;20604;-65
2023/08/14 04:15:46;;;;;;;6.68;3.65;;;;;;;15.10;100.00;100939.56;6101314;28;20040;-65
2023/08/14 04:18:41;;;;;;;8.68;3.50;;;;;;;15.11;100.00;100949.22;6103222;28;20383;-65
2023/08/14 04:21:36;;;;;;;9.83;3.57;;;;;;;15.17;100.00;100953.03;6109907;28;20075;-66
2023/08/14 04:24:31;;;;;;;12.37;3.80;;;;;;;15.17;100.00;100953.88;6101146;28;20029;-65
2023/08/14 04:27:27;;;;;;;7.57;3.30;;;;;;;15.22;100.00;100954.19;6093196;28;20025;-65
2023/08/14 04:30:22;;;;;;;7.47;3.63;;;;;;;15.14;100.00;100932.84;6101593;28;20464;-65
2023/08/14 04:33:18;;;;;;;12.47;4.03;;;;;;;15.16;100.00;100935.38;6101383;28;20053;-65
2023/08/14 04:36:13;;;;;;;9.30;3.92;;;;;;;15.13;100.00;100915.16;6101607;28;20036;-65
2023/08/14 04:39:09;;;;;;;13.80;3.83;;;;;;;15.29;100.00;100933.84;6101429;28;20021;-65
2023/08/14 04:42:04;;;;;;;8.23;3.60;;;;;;;15.36;100.00;100934.81;6101576;28;20508;-65
2023/08/14 04:44:59;;;;;;;8.73;3.85;;;;;;;15.41;100.00;100940.47;6100665;28;20260;-65
2023/08/14 04:47:55;;;;;;;7.75;3.28;;;;;;;15.43;100.00;100930.47;6101534;28;20087;-65
2023/08/14 04:50:50;;;;;;;8.00;3.00;;;;;;;15.52;100.00;100923.25;6103266;28;20029;-65
2023/08/14 04:53:45;;;;;;;9.00;3.57;;;;;;;15.67;100.00;100932.22;6100471;28;20536;-65
2023/08/14 04:56:41;;;;;;;7.20;3.53;;;;;;;16.03;100.00;100936.03;6101136;28;20044;-65
2023/08/14 04:59:36;;;;;;;10.43;2.80;;;;;;;16.43;100.00;100918.91;6101010;28;20040;-66
2023/08/14 05:02:31;;;;;;;8.00;3.20;;;;;;;16.72;100.00;100926.22;6101210;28;20071;-66
2023/08/14 05:05:27;;;;;;;5.87;2.83;;;;;;;16.75;100.00;100946.47;6101104;28;20388;-65
2023/08/14 05:08:22;;;;;;;8.17;3.20;;;;;;;16.93;100.00;100923.69;6100634;28;20043;-66
2023/08/14 05:11:17;;;;;;;8.50;3.00;;;;;;;17.04;100.00;100922.44;6101025;28;20017;-66
2023/08/14 05:14:12;;;;;;;6.77;2.80;;;;;;;17.24;100.00;100918.19;6100047;28;20100;-66
2023/08/14 05:17:08;;;;;;;9.87;3.00;;;;;;;17.64;100.00;100939.19;6100825;28;20113;-66
2023/08/14 05:20:04;;;;;;;10.67;2.47;;;;;;;17.58;100.00;100939.94;6100990;28;20271;-66
2023/08/14 05:22:59;;;;;;;8.98;3.03;;;;;;;17.81;100.00;100919.22;6103785;28;20028;-65
2023/08/14 05:25:55;;;;;;;7.28;2.40;;;;;;;17.55;100.00;100940.34;6098988;28;20498;-65
2023/08/14 05:28:51;;;;;;;7.13;2.53;;;;;;;17.84;100.00;100924.19;6100309;28;20029;-65
2023/08/14 05:31:46;;;;;;;5.83;2.40;;;;;;;17.94;100.00;100941.88;6100420;28;20028;-65
2023/08/14 05:34:41;;;;;;;5.07;2.30;;;;;;;18.28;100.00;100939.34;6099756;28;20044;-65
2023/08/14 05:37:36;;;;;;;6.27;2.30;;;;;;;17.83;100.00;100938.63;6105502;28;20040;-65
2023/08/14 05:40:32;;;;;;;5.27;2.33;;;;;;;17.98;100.00;100924.34;6100224;28;20630;-65
2023/08/14 05:43:27;;;;;;;4.18;1.95;;;;;;;17.99;99.07;100926.03;6099335;28;20021;-64
2023/08/14 05:46:24;;;;;;;5.50;2.53;;;;;;;18.27;98.12;100914.34;6102645;28;20177;-65
2023/08/14 05:49:19;;;;;;;4.95;2.10;;;;;;;18.67;95.96;100923.63;6099811;28;20045;-65
2023/08/14 05:52:14;;;;;;;7.93;2.10;;;;;;;19.18;92.78;100918.06;6099701;28;20391;-65
2023/08/14 05:55:10;;;;;;;5.33;2.40;;;;;;;19.89;87.42;100922.19;6106539;28;20036;-65
2023/08/14 05:58:08;;;;;;;6.17;2.30;;;;;;;18.98;91.69;100918.75;6099679;28;20028;-64
2023/08/14 06:01:04;;;;;;;7.13;2.47;;;;;;;18.70;95.89;100935.84;6099019;28;20790;-65
2023/08/14 06:03:59;;;;;;;6.63;3.30;;;;;;;18.15;100.00;100915.06;6094996;28;20013;-66
2023/08/14 06:06:54;;;;;;;6.23;2.53;;;;;;;18.32;100.00;100927.19;6099006;28;20024;-65
2023/08/14 06:09:50;;;;;;;8.43;2.50;;;;;;;18.10;100.00;100915.59;6082471;28;20286;-65
2023/08/14 06:12:46;;;;;;;5.38;2.40;;;;;;;18.34;100.00;100925.97;6099064;28;20025;-65
2023/08/14 06:15:41;;;;;;;5.63;2.30;;;;;;;18.94;96.61;100925.53;6092644;28;20032;-66
2023/08/14 06:18:36;;;;;;;6.27;2.13;;;;;;;18.89;95.62;100906.47;6093159;28;20079;-66
2023/08/14 06:21:32;;;;;;;6.10;2.20;;;;;;;19.88;91.48;100921.34;6099240;28;20491;-65
2023/08/14 06:24:29;;;;;;;4.77;2.10;;;;;;;20.10;87.88;100919.34;6098937;28;20040;-65
2023/08/14 06:27:24;;;;;;;9.88;2.70;;;;;;;20.46;85.51;100921.75;6096692;28;20596;-65
2023/08/14 06:30:20;;;;;;;4.63;2.20;;;;;;;20.99;82.40;100936.06;6091999;28;20021;-66
2023/08/14 06:33:16;;;;;;;6.10;2.13;;;;;;;21.80;77.14;100937.38;6092819;28;20027;-66
2023/08/14 06:36:11;;;;;;;7.03;1.97;;;;;;;21.09;75.54;100931.13;6098777;28;20041;-65
2023/08/14 06:39:06;;;;;;;9.33;2.07;;;;;;;20.93;79.19;100942.28;6100505;28;20024;-65
2023/08/14 06:42:02;;;;;;;3.50;1.75;;;;;;;21.57;76.09;100945.16;6096957;28;20167;-65
2023/08/14 06:44:57;;;;;;;5.83;2.13;;;;;;;21.49;73.48;100931.88;6101817;28;20035;-65
2023/08/14 06:47:52;;;;;;;6.30;2.38;;;;;;;21.63;75.74;100944.31;6092836;28;21946;-65
2023/08/14 06:50:48;;;;;;;5.63;2.47;;;;;;;21.63;74.24;100931.66;6092562;28;20579;-65
2023/08/14 06:53:43;;;;;;;4.40;2.07;;;;;;;21.55;75.88;100922.94;6096674;28;20017;-66
2023/08/14 06:56:38;;;;;;;7.07;2.20;;;;;;;21.38;75.87;100922.56;6099375;28;20275;-65
2023/08/14 06:59:34;;;;;;;8.50;2.40;;;;;;;21.70;73.08;100934.31;6098510;28;20025;-65
2023/08/14 07:02:30;;;;;;;6.15;2.00;;;;;;;21.88;72.65;100920.97;6097914;28;20024;-65
2023/08/14 07:05:25;;;;;;;6.63;2.35;;;;;;;21.71;73.37;100922.47;6095798;28;20032;-65
2023/08/14 07:08:20;;;;;;;5.80;2.33;;;;;;;21.42;76.96;100931.06;6098253;28;20045;-65
2023/08/14 07:11:16;;;;;;;5.60;2.50;;;;;;;21.83;74.64;100918.88;6097362;28;20092;-65
2023/08/14 07:14:11;;;;;;;7.47;2.90;;;;;;;22.15;70.54;100913.56;6097358;28;20058;-65
2023/08/14 07:17:06;;;;;;;9.00;2.77;;;;;;;21.74;72.07;100911.25;6097888;28;20079;-65
2023/08/14 07:20:04;;;;;;;8.93;3.10;;;;;;;21.84;71.80;100915.16;6098093;28;20337;-66
2023/08/14 07:23:00;;;;;;;5.75;2.53;;;;;;;22.10;70.97;100908.81;6094525;28;20032;-65
2023/08/14 07:25:57;;;;;;;9.15;2.72;;;;;;;21.87;71.75;100914.75;6097205;28;20056;-65
2023/08/14 07:28:53;;;;;;;9.38;3.65;;;;;;;21.89;72.39;100903.72;6098720;28;20064;-65
2023/08/14 07:31:48;;;;;;;10.83;3.27;;;;;;;22.15;71.33;100908.97;6095494;28;20066;-65
2023/08/14 07:34:43;;;;;;;9.77;3.70;;;;;;;22.37;70.89;100904.06;6096241;28;20025;-65
2023/08/14 07:37:40;;;;;;;7.80;3.60;;;;;;;22.66;69.71;100910.75;6096308;28;20037;-65
2023/08/14 07:40:35;;;;;;;10.77;3.72;;;;;;;23.08;68.27;100927.03;6096653;28;20260;-65
2023/08/14 07:43:31;;;;;;;10.77;3.63;;;;;;;22.87;68.12;100911.19;6096726;28;20040;-66
2023/08/14 07:46:26;;;;;;;10.52;3.25;;;;;;;23.21;66.64;100915.22;6100913;28;20544;-65
2023/08/14 07:49:22;;;;;;;11.20;3.22;;;;;;;23.21;67.91;100907.13;6096531;28;20801;-65
2023/08/14 07:52:17;;;;;;;7.40;3.05;;;;;;;23.86;66.44;100904.75;6097166;28;20025;-66
2023/08/14 07:55:12;;;;;;;7.50;3.20;;;;;;;23.76;67.01;100912.56;6096263;28;20025;-66
2023/08/14 07:58:08;;;;;;;11.13;3.20;;;;;;;23.75;66.64;100924.47;6097030;28;20279;-66
2023/08/14 08:01:04;;;;;;;8.50;3.47;;;;;;;23.85;68.07;100913.94;6101222;28;20036;-66
2023/08/14 08:03:59;;;;;;;5.10;2.72;;;;;;;23.92;65.95;100903.81;6098798;28;20118;-66
2023/08/14 08:06:55;;;;;;;10.52;2.92;;;;;;;23.70;66.22;100890.75;6093843;28;20021;-65
2023/08/14 08:09:50;;;;;;;7.22;2.70;;;;;;;23.94;65.20;100889.00;6097158;28;20045;-65
2023/08/14 08:12:45;;;;;;;6.60;2.53;;;;;;;24.42;65.38;100878.13;6097370;28;20037;-65
2023/08/14 08:15:41;;;;;;;6.60;2.67;;;;;;;24.45;65.41;100866.81;6096483;28;20017;-65
2023/08/14 08:18:36;;;;;;;8.47;2.57;;;;;;;24.26;64.32;100884.19;6098379;28;20049;-65
2023/08/14 08:21:32;;;;;;;5.53;2.70;;;;;;;24.28;64.73;100877.50;6097066;28;20124;-65
2023/08/14 08:24:27;;;;;;;8.15;2.20;;;;;;;24.47;65.39;100880.13;6096853;28;20423;-65
2023/08/14 08:27:22;;;;;;;8.53;2.80;;;;;;;24.74;64.75;100889.47;6097066;28;20369;-65
2023/08/14 08:30:18;;;;;;;9.27;2.47;;;;;;;25.12;63.43;100872.75;6093337;28;20021;-66
2023/08/14 08:33:13;;;;;;;12.02;2.95;;;;;;;25.31;62.33;100896.00;6094718;28;20053;-66
2023/08/14 08:36:08;;;;;;;9.47;2.80;;;;;;;25.42;62.29;100887.84;6091251;28;20017;-65
2023/08/14 08:39:04;;;;;;;8.57;2.30;;;;;;;25.65;59.91;100888.88;6096699;28;20025;-65
2023/08/14 08:42:00;;;;;;;5.38;2.45;;;;;;;26.01;59.05;100892.06;6095627;28;20063;-65
2023/08/14 08:44:55;;;;;;;5.85;2.97;;;;;;;26.33;59.24;100886.97;6111342;28;20051;-65
2023/08/14 08:47:51;;;;;;;5.33;2.17;;;;;;;26.61;56.59;100888.78;6093430;28;20480;-66
2023/08/14 08:50:48;;;;;;;3.60;2.00;;;;;;;26.95;56.02;100885.03;6091917;28;20033;-65
2023/08/14 08:53:43;;;;;;;3.38;1.70;;;;;;;27.51;54.58;100883.09;6094179;28;20032;-66
2023/08/14 08:56:39;;;;;;;6.03;1.88;;;;;;;27.79;54.36;100891.09;6085449;28;20036;-65
2023/08/14 08:59:34;;;;;;;4.65;1.55;;;;;;;27.53;53.50;100891.88;6097167;28;20388;-66
2023/08/14 09:02:30;;;;;;;4.05;1.98;;;;;;;27.51;54.48;100877.66;6094298;28;20025;-66
2023/08/14 09:05:25;;;;;;;3.63;1.52;;;;;;;27.94;52.26;100877.63;6101610;28;20109;-65
2023/08/14 09:08:21;;;;;;;4.45;1.63;;;;;;;27.86;54.05;100882.72;6114777;28;20499;-66
2023/08/14 09:11:16;;;;;;;6.03;1.97;;;;;;;27.45;54.56;100878.69;6098552;28;20057;-65
2023/08/14 09:14:13;;;;;;;5.57;2.30;;;;;;;27.18;54.75;100890.25;6100477;28;20275;-66
2023/08/14 09:17:10;;;;;;;4.43;2.20;;;;;;;26.26;58.94;100888.19;6105521;28;20037;-66
2023/08/14 09:20:08;;;;;;;4.30;1.95;;;;;;;26.60;58.68;100881.72;6098310;28;20068;-66
2023/08/14 09:23:04;;;;;;;4.05;1.95;;;;;;;26.67;58.17;100879.66;6096404;28;20029;-66
2023/08/14 09:25:59;;;;;;;9.30;2.20;;;;;;;26.56;57.75;100880.53;6092767;28;20036;-66
2023/08/14 09:28:55;;;;;;;6.00;2.45;;;;;;;26.14;60.49;100876.56;6097442;28;20039;-66
2023/08/14 09:31:55;;;;;;;4.85;2.30;;;;;;;26.34;59.26;100866.03;6097917;28;20773;-68
2023/08/14 09:34:57;;;;;;;7.60;2.67;;;;;;;26.21;58.73;100863.63;6097494;28;20032;-66
2023/08/14 09:37:52;;;;;;;7.28;2.63;;;;;;;26.66;58.49;100864.41;6097870;28;20033;-66
2023/08/14 09:40:47;;;;;;;5.50;2.03;;;;;;;26.39;58.00;100877.81;6100062;28;20510;-66
2023/08/14 09:43:44;;;;;;;4.80;2.20;;;;;;;26.76;58.17;100886.34;6093380;28;20943;-66
2023/08/14 09:46:40;;;;;;;3.70;2.15;;;;;;;26.81;57.77;100878.28;6093504;28;20041;-66
2023/08/14 09:49:35;;;;;;;4.93;2.33;;;;;;;26.62;58.59;100871.41;6099692;28;20444;-66
2023/08/14 09:52:30;;;;;;;5.88;2.33;;;;;;;26.12;59.81;100862.34;6099594;28;20031;-66
2023/08/14 09:55:27;;;;;;;6.57;3.00;;;;;;;26.36;60.02;100875.59;6103840;28;20052;-66
2023/08/14 09:58:22;;;;;;;4.57;2.00;;;;;;;26.45;60.18;100859.69;6094167;28;20354;-66
2023/08/14 10:01:20;;;;;;;4.40;2.10;;;;;;;26.70;57.61;100871.00;6094450;28;20037;-65
2023/08/14 10:04:17;;;;;;;6.03;2.30;;;;;;;26.80;58.29;100875.81;6084179;28;20505;-66
2023/08/14 10:07:13;;;;;;;5.75;2.10;;;;;;;27.26;57.06;100864.50;6099616;28;20072;-66
2023/08/14 10:10:11;;;;;;;4.03;1.98;;;;;;;26.88;58.46;100880.84;6092623;28;20095;-66
2023/08/14 10:13:08;;;;;;;5.28;2.05;;;;;;;26.84;59.53;100880.50;6098580;28;20025;-66
2023/08/14 10:16:06;;;;;;;5.43;2.30;;;;;;;27.58;55.90;100853.78;6098490;28;20110;-66
2023/08/14 10:19:04;;;;;;;4.13;1.90;;;;;;;27.52;55.70;100846.59;6085268;28;20033;-66
2023/08/14 10:22:00;;;;;;;8.20;2.25;;;;;;;27.43;55.95;100848.94;6085128;28;20036;-66
2023/08/14 10:24:55;;;;;;;5.13;2.05;;;;;;;27.53;56.61;100842.81;6086287;28;20063;-66
2023/08/14 10:27:51;;;;;;;5.57;2.25;;;;;;;27.52;55.27;100846.59;6090233;28;20380;-65
2023/08/14 10:30:47;;;;;;;6.68;2.47;;;;;;;27.63;55.22;100845.66;6098931;28;20032;-66
2023/08/14 10:33:43;;;;;;;4.70;2.10;;;;;;;27.61;55.05;100858.72;6098262;28;20029;-66
2023/08/14 10:36:39;;;;;;;5.78;1.92;;;;;;;27.74;53.07;100847.41;6092479;28;20028;-66
2023/08/14 10:39:35;;;;;;;5.30;2.28;;;;;;;27.40;54.84;100849.44;6096475;28;20049;-66
2023/08/14 10:42:30;;;;;;;4.03;1.88;;;;;;;27.61;54.38;100851.34;6105529;28;20107;-65
2023/08/14 10:45:27;;;;;;;4.18;2.25;;;;;;;27.39;54.82;100828.72;6099999;28;20039;-66
2023/08/14 10:48:23;;;;;;;5.03;2.47;;;;;;;27.50;55.55;100835.16;6098896;28;20380;-66
2023/08/14 10:51:21;;;;;;;4.35;2.25;;;;;;;27.41;54.77;100831.22;6105594;28;20025;-66
2023/08/14 10:54:16;;;;;;;4.78;2.30;;;;;;;26.78;56.62;100840.66;6102628;28;20020;-66
2023/08/14 10:57:12;;;;;;;3.53;2.00;;;;;;;26.92;56.00;100852.03;6109767;28;20033;-67
2023/08/14 11:00:22;;;;;;;5.30;1.90;;;;;;;26.85;57.58;100840.50;6112404;28;20282;-66
2023/08/14 11:03:17;;;;;;;5.18;2.10;;;;;;;27.38;56.13;100856.19;6092650;28;20029;-66
2023/08/14 11:06:24;;;;;;;6.80;2.05;;;;;;;27.30;54.76;100848.47;6111281;28;20453;-66
2023/08/14 11:09:20;;;;;;;4.70;2.20;;;;;;;27.08;56.43;100841.09;6096785;28;20028;-66
2023/08/14 11:12:15;;;;;;;5.27;1.90;;;;;;;27.72;54.32;100865.94;6093263;28;20024;-66
2023/08/14 11:15:14;;;;;;;5.05;2.60;;;;;;;27.51;55.73;100855.84;6105590;28;20126;-67
2023/08/14 11:18:10;;;;;;;7.78;2.50;;;;;;;27.81;54.44;100845.31;6098348;28;20029;-67
2023/08/14 11:21:05;;;;;;;5.03;2.10;;;;;;;27.61;54.17;100850.53;6097199;28;20032;-65
2023/08/14 11:24:10;;;;;;;3.33;1.97;;;;;;;27.45;53.45;100862.34;6096142;28;20106;-66
2023/08/14 11:27:05;;;;;;;7.47;2.08;;;;;;;27.38;53.09;100834.41;6085335;28;20099;-66
2023/08/14 11:30:04;;;;;;;5.32;2.13;;;;;;;27.89;52.34;100841.28;6095329;28;20035;-66
2023/08/14 11:33:04;;;;;;;7.13;2.55;;;;;;;27.55;52.98;100844.22;6105313;28;20429;-66
2023/08/14 11:35:59;;;;;;;3.95;2.33;;;;;;;28.04;52.95;100855.13;6097309;28;20025;-67
2023/08/14 11:38:55;;;;;;;4.13;2.17;;;;;;;28.08;53.56;100850.78;6098338;28;20025;-67
2023/08/14 11:41:51;;;;;;;5.57;1.95;;;;;;;27.33;55.83;100831.63;6088116;28;20057;-66
2023/08/14 11:44:46;;;;;;;5.50;2.05;;;;;;;27.66;55.30;100828.78;6091266;28;20090;-66
2023/08/14 11:47:48;;;;;;;6.43;2.63;;;;;;;28.02;53.08;100841.75;6096810;28;20095;-67
2023/08/14 11:50:47;;;;;;;6.60;2.35;;;;;;;27.82;54.63;100836.06;6097802;28;20029;-66
2023/08/14 11:53:42;;;;;;;4.93;2.53;;;;;;;28.70;52.33;100829.28;6096856;28;20033;-67
2023/08/14 11:56:38;;;;;;;5.78;2.38;;;;;;;28.18;52.75;100813.53;6088235;28;20045;-67
2023/08/14 11:59:34;;;;;;;9.30;2.20;;;;;;;28.35;51.92;100814.22;6084903;28;20465;-66
2023/08/14 12:02:30;;;;;;;4.13;2.03;;;;;;;29.45;49.55;100815.22;6088376;28;20051;-67
2023/08/14 12:05:25;;;;;;;6.00;2.13;;;;;;;30.02;47.13;100806.91;6089496;28;20028;-66
2023/08/14 12:08:20;;;;;;;6.93;2.17;;;;;;;29.56;48.15;100816.06;6086546;28;20025;-66
2023/08/14 12:11:19;;;;;;;4.00;1.90;;;;;;;29.38;49.04;100820.91;6109909;28;20052;-67
2023/08/14 12:14:14;;;;;;;7.00;2.17;;;;;;;29.92;48.51;100817.84;6096491;28;20279;-67
2023/08/14 12:17:12;;;;;;;5.50;2.40;;;;;;;30.20;48.26;100789.94;6087776;28;20084;-66
2023/08/14 12:20:10;;;;;;;5.45;2.25;;;;;;;29.42;48.32;100793.88;6097977;28;20064;-67
2023/08/14 12:23:12;;;;;;;4.20;2.00;;;;;;;29.80;48.11;100795.38;6096966;28;20064;-67
2023/08/14 12:26:08;;;;;;;4.25;1.90;;;;;;;30.49;47.34;100801.19;6093684;28;20033;-67
2023/08/14 12:29:03;;;;;;;3.50;1.90;;;;;;;30.67;45.97;100803.34;6096779;28;20029;-67
2023/08/14 12:31:59;;;;;;;5.13;2.17;;;;;;;30.40;45.65;100781.75;6095484;28;20268;-67
2023/08/14 12:34:54;;;;;;;5.30;2.00;;;;;;;30.82;46.12;100795.09;6098233;28;20028;-67
2023/08/14 12:37:49;;;;;;;4.53;1.98;;;;;;;30.82;45.29;100794.28;6096347;28;20040;-67
2023/08/14 12:40:45;;;;;;;4.60;2.20;;;;;;;30.97;45.50;100777.81;6084997;28;20048;-67
2023/08/14 12:43:40;;;;;;;7.78;2.20;;;;;;;30.87;45.66;100792.38;6094405;28;20100;-67
2023/08/14 12:46:36;;;;;;;4.57;2.17;;;;;;;31.21;45.00;100779.66;6096882;28;20032;-67
2023/08/14 12:49:31;;;;;;;4.53;2.00;;;;;;;30.25;46.71;100773.50;6085486;28;20025;-67
2023/08/14 12:52:27;;;;;;;3.85;2.00;;;;;;;29.13;48.92;100766.16;6094788;28;20083;-67
2023/08/14 12:55:22;;;;;;;5.27;2.10;;;;;;;29.72;49.31;100771.25;6086882;28;20037;-67
2023/08/14 12:58:17;;;;;;;3.70;2.10;;;;;;;29.90;49.60;100776.22;6096553;28;20032;-66
2023/08/14 13:01:13;;;;;;;4.97;2.00;;;;;;;30.15;47.60;100773.53;6085463;28;20283;-67
2023/08/14 13:04:08;;;;;;;4.47;1.83;;;;;;;30.55;46.26;100750.78;6087697;28;20041;-67
2023/08/14 13:07:03;;;;;;;4.43;2.00;;;;;;;30.31;47.21;100756.00;6089120;28;20029;-67
2023/08/14 13:09:59;;;;;;;4.50;2.25;;;;;;;31.39;46.63;100760.94;6095804;28;20033;-67
2023/08/14 13:12:56;;;;;;;2.57;1.70;;;;;;;31.39;45.68;100759.00;6094026;28;20032;-67
2023/08/14 13:15:52;;;;;;;6.35;2.00;;;;;;;31.29;45.17;100761.78;6100022;28;20040;-67
2023/08/14 13:18:47;;;;;;;4.67;2.20;;;;;;;31.16;44.65;100745.97;6093254;28;20476;-66
2023/08/14 13:21:43;;;;;;;5.28;2.38;;;;;;;31.54;45.30;100747.97;6100385;28;20029;-67
2023/08/14 13:24:38;;;;;;;5.37;1.90;;;;;;;31.58;44.85;100746.28;6100993;28;20082;-67
2023/08/14 13:27:34;;;;;;;4.63;2.20;;;;;;;31.75;44.06;100756.88;6096420;28;20274;-67
2023/08/14 13:30:29;;;;;;;4.40;2.33;;;;;;;31.13;47.70;100749.25;6097141;28;20056;-67
2023/08/14 13:33:24;;;;;;;6.37;2.03;;;;;;;31.09;46.24;100753.69;6097035;28;20041;-67
2023/08/14 13:36:20;;;;;;;4.13;2.17;;;;;;;30.33;47.79;100745.59;6095223;28;20429;-67